Terminal Aerodrome Forecast
Issued by NWS

Home | Current Version | Previous Version | Text Only | Print | Product List | Glossary On
Versions: 1 2 3 4 5 6 7 8 9 10 11 12 13 14 15 16 17 18 19
765
FTUS45 KTFX 071738
TAFHLN
TAF
KHLN 071738Z 0718/0818 25008KT P6SM BKN060
     FM080000 VRB06KT P6SM SCT060=

USA.gov is the U.S. government's official web portal to all federal, state and local government web resources and services.